Latest Coastal Weather Observations for Green Cape

IDN60701

Issued at 12:35 pm EST Wednesday 3 September 2014 (issued every 10 minutes, with the page automatically refreshed every 10 minutes)

About coastal observations | Map of coastal stations | Coastal observations for NSW | Marine services | Other Formats
Station Details ID: 069137 Name: GREEN CAPE AWS Lat: -37.26 Lon: 150.05 Height: 19.4 m
Data from the previous 72 hours. | See also: Recent months at Green Cape
Date/Time
EST
Temp

°C
Wind Pressure Rain
since 9am
mm
Weather Cloud Vis
km
Sea
Height
m
Swell
Dir
 
Speed
knots
Gust
knots
hPa Trend Height
m
Period
s
Dir
03/12:30pm 11.7 N 31 37 1015.1 - 1.2 - - - - - - -
03/12:00pm 12.0 NNE 29 34 1015.5 - 0.8 Recent precip. - - - - - -
03/11:30am 10.9 N 26 31 1015.9 - 0.6 - - - - - - -
03/11:00am 12.9 N 30 38 1015.8 - 0.0 - - - - - - -
03/10:53am 12.8 N 27 38 1015.8 - 0.0 - - - - - - -
03/10:30am 12.2 N 28 33 1016.2 - 0.0 - - - - - - -
03/10:00am 11.9 N 29 37 1016.1 - 0.0 - - - - - - -
03/09:30am 11.6 N 32 37 1016.0 - 0.0 - - - - - - -
03/09:10am 11.6 N 33 45 1016.0 - 0.0 - - - - - - -
03/09:00am 12.2 N 33 41 1016.2 - 6.2 - - - - - - -
03/08:30am 12.6 N 33 40 1015.9 - 6.2 - - - - - - -
03/08:00am 12.1 N 26 39 1015.9 - 6.2 - - - - - - -
03/07:56am 11.5 N 23 34 1016.2 - 6.2 - - - - - - -
03/07:30am 10.4 NNE 22 26 1016.4 - 6.2 - - - - - - -
03/07:22am 10.8 NNE 19 23 1016.5 - 6.2 - - - - - - -
03/07:19am 11.9 N 32 42 1016.2 - 6.2 - - - - - - -
03/07:11am 11.8 N 38 42 1015.5 - 6.2 - - - - - - -
03/07:00am 11.4 N 27 39 1015.5 - 6.2 - - - - - - -
03/06:54am 10.6 NNE 25 36 1015.8 - 6.0 - - - - - - -
03/06:30am 9.8 NNE 25 31 1016.0 - 6.0 - - - - - - -
03/06:00am 10.2 NNE 23 30 1015.7 - 6.0 - - - - - - -
03/05:53am 10.9 NNE 21 26 1015.7 - 6.0 - - - - - - -
03/05:38am 11.9 N 34 44 1014.4 - 6.0 - - - - - - -
03/05:30am 11.9 N 35 42 1014.7 - 6.0 - - - - - - -
03/05:00am 12.0 N 35 42 1014.3 - 6.0 - - - - - - -
03/04:30am 10.9 N 31 38 1014.4 - 6.0 - - - - - - -
03/04:01am 10.8 N 32 43 1014.1 - 5.6 - - - - - - -
03/04:00am 10.7 N 33 43 1014.0 - 5.6 - - - - - - -
03/03:45am 10.7 N 29 40 1014.0 - 5.6 - - - - - - -
03/03:30am 10.7 N 24 33 1014.5 - 4.8 - - - - - - -
03/03:26am 10.5 N 27 38 1014.3 - 4.6 - - - - - - -
03/03:00am 11.1 N 29 36 1014.3 - 4.2 - - - - - - -
03/02:30am 11.3 N 32 37 1014.1 - 4.2 - - - - - - -
03/02:13am 12.1 N 36 46 1014.0 - 4.2 - - - - - - -
03/02:00am 12.7 N 39 46 1013.3 - 4.2 - - - - - - -
03/01:30am 12.9 N 37 45 1013.8 - 4.2 - - - - - - -
03/01:00am 12.8 N 35 43 1013.9 - 4.2 - - - - - - -
03/12:52am 12.8 N 37 48 1013.9 - 4.2 - - - - - - -
03/12:30am 12.9 N 36 42 1013.5 - 4.2 - - - - - - -
03/12:00am 12.8 N 36 44 1013.8 - 4.2 - - - - - - -
 
Date/Time
EST
Temp

°C
Wind Pressure Rain
since 9am
mm
Weather Cloud Vis
km
Sea
Height
m
Swell
Dir
 
Speed
knots
Gust
knots
hPa Trend Height
m
Period
s
Dir
02/11:30pm 12.2 N 36 48 1014.0 - 4.2 - - - - - - -
02/11:25pm 12.7 N 35 48 1013.8 - 4.2 - - - - - - -
02/11:00pm 12.9 N 36 45 1013.6 - 4.2 - - - - - - -
02/10:30pm 12.7 N 34 41 1014.2 - 4.2 - - - - - - -
02/10:00pm 12.8 N 36 43 1014.2 - 4.2 - - - - - - -
02/09:46pm 12.9 N 36 47 1014.1 - 4.2 - - - - - - -
02/09:30pm 12.9 N 35 41 1014.0 - 4.2 - - - - - - -
02/09:00pm 12.6 N 38 51 1014.2 - 4.2 - - - - - - -
02/08:49pm 12.3 N 43 53 1013.3 - 4.2 - - - - - - -
02/08:44pm 12.7 N 43 51 1013.3 - 4.2 - - - - - - -
02/08:43pm 12.4 N 31 45 1013.5 - 4.2 - - - - - - -
02/08:30pm 12.0 N 37 44 1013.6 - 4.2 - - - - - - -
02/08:00pm 13.2 N 38 49 1012.7 - 4.2 - - - - - - -
02/07:55pm 13.3 N 38 48 1012.8 - 4.2 - - - - - - -
02/07:30pm 12.7 N 38 44 1012.9 - 4.2 - - - - - - -
02/07:00pm 13.3 N 42 49 1012.1 - 4.2 - - - - - - -
02/06:30pm 13.1 N 42 51 1011.6 - 4.2 - - - - - - -
02/06:02pm 12.0 N 40 45 1011.4 - 4.2 - - - - - - -
02/06:00pm 11.8 S 42 50 1011.3 - 4.2 - - - - - - -
02/05:30pm 12.4 S 44 55 1010.2 - 4.2 - - - - - - -
02/05:08pm 13.1 S 40 51 1009.8 - 4.2 - - - - - - -
02/05:00pm 13.1 S 43 51 1009.5 - 4.2 - - - - - - -
02/04:39pm 12.4 S 39 50 1009.2 - 4.2 - - - - - - -
02/04:30pm 12.7 S 40 47 1008.9 - 4.2 - - - - - - -
02/04:07pm 11.8 S 33 45 1009.3 - 4.0 - - - - - - -
02/04:00pm 11.4 S 33 40 1009.4 - 3.8 - - - - - - -
02/03:49pm 10.5 S 37 43 1009.3 - 3.6 - - - - - - -
02/03:41pm 10.8 SSW 31 45 1009.3 - 3.4 - - - - - - -
02/03:30pm 10.9 SW 31 35 1009.3 - 2.2 - - - - - - -
02/03:00pm 10.8 SSW 35 42 1009.2 - 1.4 Rain - - - - - -
02/02:30pm 11.1 SSW 31 37 1009.1 - 0.8 - - - - - - -
02/02:28pm 10.9 SSW 33 37 1008.8 - 0.6 - - - - - - -
02/02:00pm 10.7 WSW 25 31 1009.4 - 0.0 - - - - - - -
02/01:30pm 11.7 SW 22 28 1009.2 - 0.0 - - - - - - -
02/01:00pm 11.3 SW 24 28 1009.3 - 0.0 - - - - - - -
02/12:30pm 10.9 SW 27 33 1009.4 - 0.0 - - - - - - -
02/12:00pm 11.6 WSW 28 35 1008.8 - 0.0 - - - - - - -
02/11:30am 11.6 SW 29 36 1009.3 - 0.0 - - - - - - -
02/11:00am 11.6 SW 27 32 1009.2 - 0.0 - - - - - - -
02/10:54am 11.6 SW 28 38 1009.2 - 0.0 - - - - - - -
02/10:30am 11.7 WSW 29 36 1009.1 - 0.0 - - - - - - -
02/10:23am 11.8 SW 26 36 1009.2 - 0.0 - - - - - - -
02/10:00am 12.0 WSW 26 30 1009.2 - 0.0 - - - - - - -
02/09:30am 12.3 WSW 28 35 1009.1 - 0.0 - - - - - - -
02/09:00am 12.2 WSW 26 33 1009.1 - 5.0 - - - - - - -
02/08:30am 12.5 WSW 23 31 1008.7 - 5.0 - - - - - - -
02/08:00am 12.0 WSW 25 30 1008.2 - 5.0 - - - - - - -
02/07:30am 11.5 W 25 31 1008.1 - 5.0 - - - - - - -
02/07:00am 11.4 WSW 24 28 1008.3 - 5.0 - - - - - - -
02/06:30am 11.3 WSW 21 26 1008.6 - 5.0 - - - - - - -
02/06:00am 11.2 WSW 22 28 1008.4 - 5.0 Recent precip. - - - - - -
02/05:30am 11.0 WSW 20 23 1008.5 - 5.0 - - - - - - -
02/05:00am 10.9 WSW 21 24 1008.6 - 4.8 - - - - - - -
02/04:30am 11.0 W 17 22 1008.6 - 4.4 - - - - - - -
02/04:00am 11.0 WSW 15 20 1008.7 - 3.4 - - - - - - -
02/03:30am 11.0 WSW 15 18 1008.3 - 2.6 - - - - - - -
02/03:00am 11.2 WSW 18 22 1008.4 - 2.0 Rain - - - - - -
02/02:30am 11.9 SW 17 19 1008.6 - 1.8 - - - - - - -
02/02:00am 12.1 SW 13 16 1008.7 - 1.2 - - - - - - -
02/01:30am 12.3 SSW 12 14 1008.8 - 1.0 - - - - - - -
02/01:00am 12.7 SSW 5 6 1009.0 - 0.8 - - - - - - -
02/12:30am 12.9 WSW 8 11 1009.2 - 0.6 - - - - - - -
02/12:00am 13.1 SW 10 12 1008.8 - 0.6 - - - - - - -
 
Date/Time
EST
Temp

°C
Wind Pressure Rain
since 9am
mm
Weather Cloud Vis
km
Sea
Height
m
Swell
Dir
 
Speed
knots
Gust
knots
hPa Trend Height
m
Period
s
Dir
01/11:30pm 13.1 SSW 14 16 1008.6 - 0.6 - - - - - - -
01/11:00pm 13.2 S 12 14 1009.0 - 0.6 - - - - - - -
01/10:30pm 13.1 SSW 15 17 1008.8 - 0.4 - - - - - - -
01/10:00pm 13.8 SSW 18 21 1008.8 - 0.0 - - - - - - -
01/09:30pm 14.2 SSW 20 24 1008.5 - 0.0 - - - - - - -
01/09:00pm 15.0 SSW 22 28 1008.0 - 0.0 - - - - - - -
01/08:54pm 15.6 SSW 18 28 1008.2 - 0.0 - - - - - - -
01/08:53pm 15.7 SSW 16 24 1008.4 - 0.0 - - - - - - -
01/08:30pm 15.3 N 4 6 1007.5 - 0.0 - - - - - - -
01/08:00pm 14.8 N 6 7 1007.3 - 0.0 - - - - - - -
01/07:30pm 15.1 N 7 8 1007.3 - 0.0 - - - - - - -
01/07:00pm 15.4 N 7 9 1007.5 - 0.0 - - - - - - -
01/06:30pm 15.4 N 7 8 1007.6 - 0.0 - - - - - - -
01/06:00pm 15.4 N 8 9 1007.5 - 0.0 - - - - - - -
01/05:30pm 15.4 N 7 8 1007.5 - 0.0 - - - - - - -
01/05:00pm 15.5 N 6 7 1007.4 - 0.0 - - - - - - -
01/04:30pm 15.5 N 7 8 1007.6 - 0.0 - - - - - - -
01/04:00pm 15.4 N 10 11 1007.5 - 0.0 - - - - - - -
01/03:30pm 15.9 N 9 10 1007.5 - 0.0 - - - - - - -
01/03:00pm 16.0 N 9 10 1007.9 - 0.0 - - - - - - -
01/02:30pm 15.9 N 10 11 1008.0 - 0.0 - - - - - - -
01/02:00pm 16.4 N 10 11 1008.3 - 0.0 - - - - - - -
01/01:30pm 17.2 N 11 12 1008.7 - 0.0 - - - - - - -
01/01:00pm 17.4 N 10 12 1009.1 - 0.0 - - - - - - -
01/12:30pm 16.3 N 12 14 1009.5 - 0.0 - - - - - - -
01/12:00pm 16.5 N 10 12 1009.9 - 0.0 - - - - - - -
01/11:30am 15.9 N 9 10 1010.5 - 0.0 - - - - - - -
01/11:00am 16.1 N 9 11 1010.7 - 0.0 - - - - - - -
01/10:30am 15.2 N 11 12 1011.1 - 0.0 - - - - - - -
01/10:00am 14.4 N 11 12 1011.5 - 0.0 - - - - - - -
01/09:30am 14.1 N 11 13 1012.1 - 0.0 - - - - - - -
01/09:00am 14.1 N 12 13 1012.3 - 0.2 - - - - - - -
01/08:30am 14.6 N 8 10 1012.7 - 0.2 - - - - - - -
01/08:00am 13.8 NNW 3 6 1012.9 - 0.2 - - - - - - -
01/07:30am 12.4 N 6 9 1012.9 - 0.2 - - - - - - -
01/07:00am 12.5 N 5 7 1012.9 - 0.2 - - - - - - -
01/06:30am 12.3 N 4 7 1012.9 - 0.2 - - - - - - -
01/06:00am 12.5 N 9 11 1012.8 - 0.0 - - - - - - -
01/05:30am 12.8 N 9 11 1013.0 - 0.0 - - - - - - -
01/05:00am 13.1 N 10 14 1012.9 - 0.0 - - - - - - -
01/04:30am 13.0 N 11 13 1012.6 - 0.0 - - - - - - -
01/04:00am 12.7 N 7 11 1013.1 - 0.0 - - - - - - -
01/03:30am 12.7 N 8 11 1013.2 - 0.0 - - - - - - -
01/03:00am 12.8 N 11 13 1013.4 - 0.0 - - - - - - -
01/02:30am 12.8 N 10 12 1013.8 - 0.0 - - - - - - -
01/02:00am 13.0 N 10 12 1014.0 - 0.0 - - - - - - -
01/01:30am 13.2 N 8 10 1014.6 - 0.0 - - - - - - -
01/01:00am 13.5 N 10 12 1014.8 - 0.0 - - - - - - -
01/12:30am 13.8 N 14 16 1015.0 - 0.0 - - - - - - -
01/12:00am 13.5 N 8 9 1015.3 - 0.0 - - - - - - -
 
Date/Time
EST
Temp

°C
Wind Pressure Rain
since 9am
mm
Weather Cloud Vis
km
Sea
Height
m
Swell
Dir
 
Speed
knots
Gust
knots
hPa Trend Height
m
Period
s
Dir
31/11:30pm 13.6 N 7 9 1015.7 - 0.0 - - - - - - -
31/11:00pm 13.6 N 8 10 1015.8 - 0.0 - - - - - - -
31/10:30pm 13.9 N 8 10 1016.1 - 0.0 - - - - - - -
31/10:00pm 14.1 N 7 9 1016.4 - 0.0 - - - - - - -
31/09:30pm 14.6 N 11 15 1016.7 - 0.0 - - - - - - -
31/09:00pm 15.0 NNE 13 16 1016.5 - 0.0 - - - - - - -
31/08:30pm 14.9 N 13 16 1016.7 - 0.0 - - - - - - -
31/08:00pm 15.0 N 12 15 1016.7 - 0.0 - - - - - - -
31/07:30pm 14.9 N 12 14 1016.8 - 0.0 - - - - - - -
31/07:00pm 14.9 N 12 14 1016.9 - 0.0 - - - - - - -
31/06:30pm 14.9 N 12 14 1016.7 - 0.0 - - - - - - -
31/06:00pm 14.9 N 11 13 1016.7 - 0.0 - - - - - - -
31/05:30pm 15.0 N 11 13 1016.4 - 0.0 - - - - - - -
31/05:00pm 15.6 N 11 13 1016.4 - 0.0 - - - - - - -
31/04:30pm 16.1 NNE 11 12 1016.3 - 0.0 - - - - - - -
31/04:00pm 16.6 NNE 11 12 1016.3 - 0.0 - - - - - - -
31/03:30pm 17.1 NNE 11 13 1016.4 - 0.0 - - - - - - -
31/03:00pm 17.3 NNE 11 12 1016.6 - 0.0 - - - - - - -
31/02:30pm 17.7 NNE 11 12 1016.8 - 0.0 - - - - - - -
31/02:00pm 17.8 NNE 10 11 1017.0 - 0.0 - - - - - - -
31/01:30pm 17.6 NNE 9 10 1017.3 - 0.0 - - - - - - -
31/01:00pm 17.5 N 8 10 1017.7 - 0.0 - - - - - - -

Other Formats:

Comma delimited format used in spreadsheet applications
http://www.bom.gov.au/fwo/IDN60701/IDN60701.94934.axf

JavaScript Object Notation format (JSON) in row-major order
http://www.bom.gov.au/fwo/IDN60701/IDN60701.94934.json